sensor_id;sensor_type;location;lat;lon;timestamp;P1;durP1;ratioP1;P2;durP2;ratioP2
151;SDS011;68;48.792;9.164;2022-11-15T00:01:29;10.07;;;6.07;;
151;SDS011;68;48.792;9.164;2022-11-15T00:03:56;10.00;;;4.95;;
151;SDS011;68;48.792;9.164;2022-11-15T00:06:24;5.55;;;4.45;;
151;SDS011;68;48.792;9.164;2022-11-15T00:08:51;6.45;;;5.15;;
151;SDS011;68;48.792;9.164;2022-11-15T00:11:18;11.20;;;5.30;;
151;SDS011;68;48.792;9.164;2022-11-15T00:13:45;7.10;;;4.75;;
151;SDS011;68;48.792;9.164;2022-11-15T00:16:11;9.23;;;4.85;;
151;SDS011;68;48.792;9.164;2022-11-15T00:18:38;6.80;;;4.70;;
151;SDS011;68;48.792;9.164;2022-11-15T00:21:06;6.32;;;5.10;;
151;SDS011;68;48.792;9.164;2022-11-15T00:23:35;7.07;;;4.75;;
151;SDS011;68;48.792;9.164;2022-11-15T00:26:02;8.20;;;5.35;;
151;SDS011;68;48.792;9.164;2022-11-15T00:28:29;6.40;;;5.15;;
151;SDS011;68;48.792;9.164;2022-11-15T00:30:59;6.45;;;4.25;;
151;SDS011;68;48.792;9.164;2022-11-15T00:33:27;8.15;;;4.97;;
151;SDS011;68;48.792;9.164;2022-11-15T00:35:58;7.97;;;5.38;;
151;SDS011;68;48.792;9.164;2022-11-15T00:38:29;7.20;;;5.00;;
151;SDS011;68;48.792;9.164;2022-11-15T00:41:00;7.82;;;4.75;;
151;SDS011;68;48.792;9.164;2022-11-15T00:43:27;8.73;;;4.63;;
151;SDS011;68;48.792;9.164;2022-11-15T00:45:54;6.10;;;4.25;;
151;SDS011;68;48.792;9.164;2022-11-15T00:48:20;7.60;;;4.70;;
151;SDS011;68;48.792;9.164;2022-11-15T00:50:47;5.35;;;4.15;;
151;SDS011;68;48.792;9.164;2022-11-15T00:53:14;6.53;;;4.72;;
151;SDS011;68;48.792;9.164;2022-11-15T00:55:41;6.05;;;4.70;;
151;SDS011;68;48.792;9.164;2022-11-15T00:58:09;6.05;;;4.30;;
151;SDS011;68;48.792;9.164;2022-11-15T01:00:36;6.22;;;4.35;;
151;SDS011;68;48.792;9.164;2022-11-15T01:03:03;8.07;;;4.30;;
151;SDS011;68;48.792;9.164;2022-11-15T01:05:30;7.93;;;4.30;;
151;SDS011;68;48.792;9.164;2022-11-15T01:07:56;7.88;;;4.28;;
151;SDS011;68;48.792;9.164;2022-11-15T01:10:23;8.68;;;4.57;;
151;SDS011;68;48.792;9.164;2022-11-15T01:12:50;6.78;;;4.43;;
151;SDS011;68;48.792;9.164;2022-11-15T01:15:19;7.35;;;4.50;;
151;SDS011;68;48.792;9.164;2022-11-15T01:17:46;6.35;;;4.53;;
151;SDS011;68;48.792;9.164;2022-11-15T01:20:12;5.15;;;4.30;;
151;SDS011;68;48.792;9.164;2022-11-15T01:22:39;7.03;;;4.32;;
151;SDS011;68;48.792;9.164;2022-11-15T01:25:06;5.15;;;4.35;;
151;SDS011;68;48.792;9.164;2022-11-15T01:27:33;5.82;;;4.68;;
151;SDS011;68;48.792;9.164;2022-11-15T01:29:59;10.40;;;4.40;;
151;SDS011;68;48.792;9.164;2022-11-15T01:32:27;5.38;;;3.97;;
151;SDS011;68;48.792;9.164;2022-11-15T01:34:54;5.22;;;4.43;;
151;SDS011;68;48.792;9.164;2022-11-15T01:37:21;4.95;;;4.20;;
151;SDS011;68;48.792;9.164;2022-11-15T01:39:48;5.10;;;4.40;;
151;SDS011;68;48.792;9.164;2022-11-15T01:42:14;6.95;;;4.70;;
151;SDS011;68;48.792;9.164;2022-11-15T01:44:43;7.00;;;4.70;;
151;SDS011;68;48.792;9.164;2022-11-15T01:47:13;7.70;;;4.57;;
151;SDS011;68;48.792;9.164;2022-11-15T01:49:45;11.02;;;5.60;;
151;SDS011;68;48.792;9.164;2022-11-15T01:52:19;5.60;;;4.47;;
151;SDS011;68;48.792;9.164;2022-11-15T01:54:48;6.15;;;5.10;;
151;SDS011;68;48.792;9.164;2022-11-15T01:57:19;7.30;;;5.00;;
151;SDS011;68;48.792;9.164;2022-11-15T01:59:46;8.63;;;4.68;;
151;SDS011;68;48.792;9.164;2022-11-15T02:02:13;5.85;;;4.70;;
151;SDS011;68;48.792;9.164;2022-11-15T02:04:41;9.82;;;5.20;;
151;SDS011;68;48.792;9.164;2022-11-15T02:07:12;7.47;;;4.70;;
151;SDS011;68;48.792;9.164;2022-11-15T02:09:41;7.10;;;5.10;;
151;SDS011;68;48.792;9.164;2022-11-15T02:12:09;6.10;;;5.15;;
151;SDS011;68;48.792;9.164;2022-11-15T02:14:39;7.00;;;4.80;;
151;SDS011;68;48.792;9.164;2022-11-15T02:17:17;9.48;;;4.95;;
151;SDS011;68;48.792;9.164;2022-11-15T02:20:08;8.45;;;5.20;;
151;SDS011;68;48.792;9.164;2022-11-15T02:23:00;6.50;;;4.43;;
151;SDS011;68;48.792;9.164;2022-11-15T02:25:44;7.38;;;4.85;;
151;SDS011;68;48.792;9.164;2022-11-15T02:28:28;6.55;;;4.93;;
151;SDS011;68;48.792;9.164;2022-11-15T02:31:12;8.15;;;4.70;;
151;SDS011;68;48.792;9.164;2022-11-15T02:33:45;6.43;;;4.70;;
151;SDS011;68;48.792;9.164;2022-11-15T02:36:21;6.07;;;4.50;;
151;SDS011;68;48.792;9.164;2022-11-15T02:39:01;6.60;;;4.60;;
151;SDS011;68;48.792;9.164;2022-11-15T02:41:34;6.03;;;4.97;;
151;SDS011;68;48.792;9.164;2022-11-15T02:44:07;6.90;;;4.90;;
151;SDS011;68;48.792;9.164;2022-11-15T02:46:40;10.57;;;4.85;;
151;SDS011;68;48.792;9.164;2022-11-15T02:49:28;5.38;;;4.65;;
151;SDS011;68;48.792;9.164;2022-11-15T02:51:57;7.68;;;5.15;;
151;SDS011;68;48.792;9.164;2022-11-15T02:54:25;7.30;;;4.95;;
151;SDS011;68;48.792;9.164;2022-11-15T02:56:57;7.80;;;4.78;;
151;SDS011;68;48.792;9.164;2022-11-15T02:59:37;5.82;;;4.20;;
151;SDS011;68;48.792;9.164;2022-11-15T03:02:27;6.25;;;4.78;;
151;SDS011;68;48.792;9.164;2022-11-15T03:05:04;8.20;;;4.90;;
151;SDS011;68;48.792;9.164;2022-11-15T03:07:41;7.97;;;4.75;;
151;SDS011;68;48.792;9.164;2022-11-15T03:10:16;6.50;;;4.15;;
151;SDS011;68;48.792;9.164;2022-11-15T03:12:49;4.85;;;4.22;;
151;SDS011;68;48.792;9.164;2022-11-15T03:15:21;14.98;;;4.70;;
151;SDS011;68;48.792;9.164;2022-11-15T03:17:55;5.55;;;4.72;;
151;SDS011;68;48.792;9.164;2022-11-15T03:20:27;5.97;;;4.30;;
151;SDS011;68;48.792;9.164;2022-11-15T03:22:55;5.90;;;4.43;;
151;SDS011;68;48.792;9.164;2022-11-15T03:25:30;6.25;;;4.50;;
151;SDS011;68;48.792;9.164;2022-11-15T03:27:59;6.05;;;4.03;;
151;SDS011;68;48.792;9.164;2022-11-15T03:30:31;5.10;;;4.40;;
151;SDS011;68;48.792;9.164;2022-11-15T03:33:02;6.30;;;4.40;;
151;SDS011;68;48.792;9.164;2022-11-15T03:35:32;5.45;;;4.50;;
151;SDS011;68;48.792;9.164;2022-11-15T03:38:04;8.00;;;4.85;;
151;SDS011;68;48.792;9.164;2022-11-15T03:40:38;7.10;;;4.53;;
151;SDS011;68;48.792;9.164;2022-11-15T03:43:08;8.13;;;4.40;;
151;SDS011;68;48.792;9.164;2022-11-15T03:45:43;8.57;;;4.95;;
151;SDS011;68;48.792;9.164;2022-11-15T03:48:17;6.28;;;5.05;;
151;SDS011;68;48.792;9.164;2022-11-15T03:50:47;4.72;;;4.00;;
151;SDS011;68;48.792;9.164;2022-11-15T03:53:14;6.53;;;4.70;;
151;SDS011;68;48.792;9.164;2022-11-15T03:55:41;7.90;;;4.63;;
151;SDS011;68;48.792;9.164;2022-11-15T03:58:08;7.45;;;4.53;;
151;SDS011;68;48.792;9.164;2022-11-15T04:00:35;6.15;;;4.50;;
151;SDS011;68;48.792;9.164;2022-11-15T04:03:02;5.20;;;4.32;;
151;SDS011;68;48.792;9.164;2022-11-15T04:05:30;9.30;;;5.10;;
151;SDS011;68;48.792;9.164;2022-11-15T04:07:57;5.55;;;4.15;;
151;SDS011;68;48.792;9.164;2022-11-15T04:10:23;7.25;;;4.50;;
151;SDS011;68;48.792;9.164;2022-11-15T04:12:50;6.45;;;4.75;;
151;SDS011;68;48.792;9.164;2022-11-15T04:15:18;5.80;;;4.38;;
151;SDS011;68;48.792;9.164;2022-11-15T04:17:48;4.60;;;4.00;;
151;SDS011;68;48.792;9.164;2022-11-15T04:20:17;6.88;;;4.50;;
151;SDS011;68;48.792;9.164;2022-11-15T04:23:05;6.97;;;4.30;;
151;SDS011;68;48.792;9.164;2022-11-15T04:25:51;7.68;;;4.28;;
151;SDS011;68;48.792;9.164;2022-11-15T04:28:19;5.05;;;4.40;;
151;SDS011;68;48.792;9.164;2022-11-15T04:30:45;4.95;;;4.07;;
151;SDS011;68;48.792;9.164;2022-11-15T04:33:12;6.85;;;4.25;;
151;SDS011;68;48.792;9.164;2022-11-15T04:35:40;5.30;;;4.35;;
151;SDS011;68;48.792;9.164;2022-11-15T04:38:09;4.50;;;4.00;;
151;SDS011;68;48.792;9.164;2022-11-15T04:40:36;6.07;;;4.18;;
151;SDS011;68;48.792;9.164;2022-11-15T04:43:04;7.00;;;4.22;;
151;SDS011;68;48.792;9.164;2022-11-15T04:45:31;5.55;;;4.05;;
151;SDS011;68;48.792;9.164;2022-11-15T04:47:57;8.20;;;4.35;;
151;SDS011;68;48.792;9.164;2022-11-15T04:50:24;5.03;;;4.10;;
151;SDS011;68;48.792;9.164;2022-11-15T04:52:51;6.60;;;4.43;;
151;SDS011;68;48.792;9.164;2022-11-15T04:55:20;4.95;;;3.85;;
151;SDS011;68;48.792;9.164;2022-11-15T04:57:47;7.38;;;4.40;;
151;SDS011;68;48.792;9.164;2022-11-15T05:00:31;5.78;;;3.83;;
151;SDS011;68;48.792;9.164;2022-11-15T05:02:58;5.32;;;4.07;;
151;SDS011;68;48.792;9.164;2022-11-15T05:05:42;11.15;;;4.05;;
151;SDS011;68;48.792;9.164;2022-11-15T05:08:09;6.53;;;4.57;;
151;SDS011;68;48.792;9.164;2022-11-15T05:10:37;5.40;;;4.47;;
151;SDS011;68;48.792;9.164;2022-11-15T05:13:04;7.00;;;4.68;;
151;SDS011;68;48.792;9.164;2022-11-15T05:15:31;5.43;;;4.30;;
151;SDS011;68;48.792;9.164;2022-11-15T05:17:58;5.95;;;4.60;;
151;SDS011;68;48.792;9.164;2022-11-15T05:20:25;4.40;;;4.10;;
151;SDS011;68;48.792;9.164;2022-11-15T05:22:52;6.53;;;4.40;;
151;SDS011;68;48.792;9.164;2022-11-15T05:25:19;7.55;;;4.15;;
151;SDS011;68;48.792;9.164;2022-11-15T05:27:47;4.47;;;3.75;;
151;SDS011;68;48.792;9.164;2022-11-15T05:30:15;5.93;;;4.30;;
151;SDS011;68;48.792;9.164;2022-11-15T05:32:42;6.30;;;4.30;;
151;SDS011;68;48.792;9.164;2022-11-15T05:35:11;8.63;;;4.70;;
151;SDS011;68;48.792;9.164;2022-11-15T05:37:41;5.90;;;3.90;;
151;SDS011;68;48.792;9.164;2022-11-15T05:40:08;5.50;;;4.35;;
151;SDS011;68;48.792;9.164;2022-11-15T05:42:35;6.07;;;4.30;;
151;SDS011;68;48.792;9.164;2022-11-15T05:45:04;6.70;;;4.30;;
151;SDS011;68;48.792;9.164;2022-11-15T05:47:33;6.00;;;4.57;;
151;SDS011;68;48.792;9.164;2022-11-15T05:50:02;7.63;;;4.25;;
151;SDS011;68;48.792;9.164;2022-11-15T05:52:30;5.82;;;4.57;;
151;SDS011;68;48.792;9.164;2022-11-15T05:54:59;4.80;;;3.85;;
151;SDS011;68;48.792;9.164;2022-11-15T05:57:26;6.22;;;3.95;;
151;SDS011;68;48.792;9.164;2022-11-15T05:59:52;5.25;;;4.00;;
151;SDS011;68;48.792;9.164;2022-11-15T06:02:21;4.57;;;3.83;;
151;SDS011;68;48.792;9.164;2022-11-15T06:04:48;4.95;;;3.80;;
151;SDS011;68;48.792;9.164;2022-11-15T06:07:15;5.95;;;4.15;;
151;SDS011;68;48.792;9.164;2022-11-15T06:09:42;6.03;;;4.18;;
151;SDS011;68;48.792;9.164;2022-11-15T06:12:08;10.30;;;4.30;;
151;SDS011;68;48.792;9.164;2022-11-15T06:14:35;6.13;;;4.28;;
151;SDS011;68;48.792;9.164;2022-11-15T06:17:02;4.72;;;3.70;;
151;SDS011;68;48.792;9.164;2022-11-15T06:19:30;6.10;;;4.38;;
151;SDS011;68;48.792;9.164;2022-11-15T06:21:57;5.57;;;4.00;;
151;SDS011;68;48.792;9.164;2022-11-15T06:24:24;4.60;;;3.50;;
151;SDS011;68;48.792;9.164;2022-11-15T06:26:51;4.75;;;4.00;;
151;SDS011;68;48.792;9.164;2022-11-15T06:29:18;5.82;;;3.90;;
151;SDS011;68;48.792;9.164;2022-11-15T06:31:45;4.70;;;3.83;;
151;SDS011;68;48.792;9.164;2022-11-15T06:34:17;6.07;;;4.20;;
151;SDS011;68;48.792;9.164;2022-11-15T06:36:46;4.72;;;4.03;;
151;SDS011;68;48.792;9.164;2022-11-15T06:39:12;6.18;;;4.30;;
151;SDS011;68;48.792;9.164;2022-11-15T06:41:39;8.90;;;3.80;;
151;SDS011;68;48.792;9.164;2022-11-15T06:44:06;9.00;;;4.30;;
151;SDS011;68;48.792;9.164;2022-11-15T06:46:33;6.38;;;4.00;;
151;SDS011;68;48.792;9.164;2022-11-15T06:48:59;8.15;;;4.45;;
151;SDS011;68;48.792;9.164;2022-11-15T06:51:26;6.45;;;4.40;;
151;SDS011;68;48.792;9.164;2022-11-15T06:53:54;5.20;;;4.28;;
151;SDS011;68;48.792;9.164;2022-11-15T06:56:21;7.88;;;5.00;;
151;SDS011;68;48.792;9.164;2022-11-15T06:58:48;6.78;;;4.30;;
151;SDS011;68;48.792;9.164;2022-11-15T07:01:15;5.65;;;4.63;;
151;SDS011;68;48.792;9.164;2022-11-15T07:03:42;5.45;;;4.43;;
151;SDS011;68;48.792;9.164;2022-11-15T07:06:09;7.25;;;4.38;;
151;SDS011;68;48.792;9.164;2022-11-15T07:08:36;5.75;;;4.13;;
151;SDS011;68;48.792;9.164;2022-11-15T07:11:05;6.85;;;4.95;;
151;SDS011;68;48.792;9.164;2022-11-15T07:13:34;7.70;;;5.60;;
151;SDS011;68;48.792;9.164;2022-11-15T07:16:02;9.45;;;5.30;;
151;SDS011;68;48.792;9.164;2022-11-15T07:18:29;9.30;;;5.60;;
151;SDS011;68;48.792;9.164;2022-11-15T07:20:59;11.80;;;6.13;;
151;SDS011;68;48.792;9.164;2022-11-15T07:23:27;10.07;;;6.32;;
151;SDS011;68;48.792;9.164;2022-11-15T07:25:55;10.23;;;6.63;;
151;SDS011;68;48.792;9.164;2022-11-15T07:28:24;10.73;;;6.25;;
151;SDS011;68;48.792;9.164;2022-11-15T07:30:51;7.70;;;5.82;;
151;SDS011;68;48.792;9.164;2022-11-15T07:33:18;7.57;;;5.60;;
151;SDS011;68;48.792;9.164;2022-11-15T07:35:45;10.73;;;6.15;;
151;SDS011;68;48.792;9.164;2022-11-15T07:38:14;6.95;;;5.30;;
151;SDS011;68;48.792;9.164;2022-11-15T07:40:44;9.45;;;6.32;;
151;SDS011;68;48.792;9.164;2022-11-15T07:43:11;7.30;;;5.47;;
151;SDS011;68;48.792;9.164;2022-11-15T07:45:41;7.65;;;5.35;;
151;SDS011;68;48.792;9.164;2022-11-15T07:48:09;7.88;;;4.80;;
151;SDS011;68;48.792;9.164;2022-11-15T07:50:36;7.78;;;4.93;;
151;SDS011;68;48.792;9.164;2022-11-15T07:53:03;9.05;;;5.90;;
151;SDS011;68;48.792;9.164;2022-11-15T07:55:30;7.90;;;5.20;;
151;SDS011;68;48.792;9.164;2022-11-15T07:58:00;9.13;;;5.50;;
151;SDS011;68;48.792;9.164;2022-11-15T08:00:27;7.50;;;4.78;;
151;SDS011;68;48.792;9.164;2022-11-15T08:03:02;9.25;;;5.47;;
151;SDS011;68;48.792;9.164;2022-11-15T08:05:30;7.97;;;4.70;;
151;SDS011;68;48.792;9.164;2022-11-15T08:07:57;7.50;;;5.18;;
151;SDS011;68;48.792;9.164;2022-11-15T08:10:24;12.70;;;5.20;;
151;SDS011;68;48.792;9.164;2022-11-15T08:12:56;8.80;;;4.63;;
151;SDS011;68;48.792;9.164;2022-11-15T08:15:24;7.03;;;4.80;;
151;SDS011;68;48.792;9.164;2022-11-15T08:17:53;8.60;;;5.20;;
151;SDS011;68;48.792;9.164;2022-11-15T08:20:22;5.95;;;4.80;;
151;SDS011;68;48.792;9.164;2022-11-15T08:22:49;7.85;;;4.70;;
151;SDS011;68;48.792;9.164;2022-11-15T08:25:16;7.47;;;5.30;;
151;SDS011;68;48.792;9.164;2022-11-15T08:27:43;8.23;;;4.65;;
151;SDS011;68;48.792;9.164;2022-11-15T08:30:10;8.50;;;4.85;;
151;SDS011;68;48.792;9.164;2022-11-15T08:32:38;8.07;;;4.45;;
151;SDS011;68;48.792;9.164;2022-11-15T08:35:05;9.27;;;5.40;;
151;SDS011;68;48.792;9.164;2022-11-15T08:37:34;8.45;;;5.05;;
151;SDS011;68;48.792;9.164;2022-11-15T08:40:01;7.63;;;5.00;;
151;SDS011;68;48.792;9.164;2022-11-15T08:42:29;9.15;;;5.13;;
151;SDS011;68;48.792;9.164;2022-11-15T08:44:56;6.40;;;5.53;;
151;SDS011;68;48.792;9.164;2022-11-15T08:47:22;7.60;;;4.95;;
151;SDS011;68;48.792;9.164;2022-11-15T08:49:49;15.07;;;5.45;;
151;SDS011;68;48.792;9.164;2022-11-15T08:52:16;7.35;;;5.07;;
151;SDS011;68;48.792;9.164;2022-11-15T08:54:44;5.97;;;4.63;;
151;SDS011;68;48.792;9.164;2022-11-15T08:57:11;7.13;;;5.20;;
151;SDS011;68;48.792;9.164;2022-11-15T08:59:38;7.28;;;5.03;;
151;SDS011;68;48.792;9.164;2022-11-15T09:02:05;10.85;;;5.40;;
151;SDS011;68;48.792;9.164;2022-11-15T09:04:32;6.57;;;4.85;;
151;SDS011;68;48.792;9.164;2022-11-15T09:06:59;10.95;;;4.30;;
151;SDS011;68;48.792;9.164;2022-11-15T09:09:25;7.15;;;4.80;;
151;SDS011;68;48.792;9.164;2022-11-15T09:11:53;6.13;;;4.55;;
151;SDS011;68;48.792;9.164;2022-11-15T09:14:20;15.75;;;4.43;;
151;SDS011;68;48.792;9.164;2022-11-15T09:16:47;9.15;;;4.95;;
151;SDS011;68;48.792;9.164;2022-11-15T09:19:14;6.68;;;4.60;;
151;SDS011;68;48.792;9.164;2022-11-15T09:21:40;11.10;;;4.80;;
151;SDS011;68;48.792;9.164;2022-11-15T09:24:07;6.60;;;4.95;;
151;SDS011;68;48.792;9.164;2022-11-15T09:26:34;7.65;;;5.05;;
151;SDS011;68;48.792;9.164;2022-11-15T09:29:02;8.60;;;4.70;;
151;SDS011;68;48.792;9.164;2022-11-15T09:31:29;9.90;;;4.40;;
151;SDS011;68;48.792;9.164;2022-11-15T09:33:56;8.63;;;4.57;;
151;SDS011;68;48.792;9.164;2022-11-15T09:36:23;7.13;;;4.70;;
151;SDS011;68;48.792;9.164;2022-11-15T09:38:50;10.43;;;4.82;;
151;SDS011;68;48.792;9.164;2022-11-15T09:41:34;6.45;;;4.82;;
151;SDS011;68;48.792;9.164;2022-11-15T09:44:24;11.55;;;5.40;;
151;SDS011;68;48.792;9.164;2022-11-15T09:47:02;10.98;;;5.65;;
151;SDS011;68;48.792;9.164;2022-11-15T09:49:40;10.95;;;5.35;;
151;SDS011;68;48.792;9.164;2022-11-15T09:52:07;9.02;;;4.93;;
151;SDS011;68;48.792;9.164;2022-11-15T09:54:35;9.40;;;4.80;;
151;SDS011;68;48.792;9.164;2022-11-15T09:57:04;10.43;;;5.20;;
151;SDS011;68;48.792;9.164;2022-11-15T09:59:40;9.38;;;4.85;;
151;SDS011;68;48.792;9.164;2022-11-15T10:02:19;13.02;;;5.25;;
151;SDS011;68;48.792;9.164;2022-11-15T10:04:57;6.88;;;4.65;;
151;SDS011;68;48.792;9.164;2022-11-15T10:07:27;11.32;;;5.43;;
151;SDS011;68;48.792;9.164;2022-11-15T10:10:00;10.75;;;4.55;;
151;SDS011;68;48.792;9.164;2022-11-15T10:12:35;6.40;;;5.30;;
151;SDS011;68;48.792;9.164;2022-11-15T10:15:04;9.82;;;5.32;;
151;SDS011;68;48.792;9.164;2022-11-15T10:17:41;11.35;;;5.07;;
151;SDS011;68;48.792;9.164;2022-11-15T10:20:22;6.72;;;4.72;;
151;SDS011;68;48.792;9.164;2022-11-15T10:22:52;12.82;;;4.70;;
151;SDS011;68;48.792;9.164;2022-11-15T10:25:22;11.55;;;5.80;;
151;SDS011;68;48.792;9.164;2022-11-15T10:27:52;8.63;;;4.80;;
151;SDS011;68;48.792;9.164;2022-11-15T10:30:23;8.25;;;5.65;;
151;SDS011;68;48.792;9.164;2022-11-15T10:32:56;8.50;;;4.90;;
151;SDS011;68;48.792;9.164;2022-11-15T10:35:24;5.70;;;4.10;;
151;SDS011;68;48.792;9.164;2022-11-15T10:37:52;11.38;;;5.32;;
151;SDS011;68;48.792;9.164;2022-11-15T10:40:31;8.55;;;4.53;;
151;SDS011;68;48.792;9.164;2022-11-15T10:43:04;8.70;;;5.00;;
151;SDS011;68;48.792;9.164;2022-11-15T10:45:33;7.25;;;4.68;;
151;SDS011;68;48.792;9.164;2022-11-15T10:50:48;8.00;;;4.82;;
151;SDS011;68;48.792;9.164;2022-11-15T10:53:18;7.00;;;4.47;;
151;SDS011;68;48.792;9.164;2022-11-15T10:55:58;5.57;;;4.30;;
151;SDS011;68;48.792;9.164;2022-11-15T10:58:32;6.47;;;4.00;;
151;SDS011;68;48.792;9.164;2022-11-15T11:01:09;6.15;;;4.07;;
151;SDS011;68;48.792;9.164;2022-11-15T11:03:38;6.43;;;4.00;;
151;SDS011;68;48.792;9.164;2022-11-15T11:06:08;7.22;;;4.10;;
151;SDS011;68;48.792;9.164;2022-11-15T11:08:36;6.47;;;4.07;;
151;SDS011;68;48.792;9.164;2022-11-15T11:11:03;6.05;;;4.35;;
151;SDS011;68;48.792;9.164;2022-11-15T11:13:32;10.82;;;4.30;;
151;SDS011;68;48.792;9.164;2022-11-15T11:16:21;10.82;;;5.10;;
151;SDS011;68;48.792;9.164;2022-11-15T11:19:02;18.60;;;4.38;;
151;SDS011;68;48.792;9.164;2022-11-15T11:21:39;6.85;;;4.40;;
151;SDS011;68;48.792;9.164;2022-11-15T11:24:13;14.00;;;4.97;;
151;SDS011;68;48.792;9.164;2022-11-15T11:26:54;11.00;;;4.30;;
151;SDS011;68;48.792;9.164;2022-11-15T11:29:38;6.15;;;4.00;;
151;SDS011;68;48.792;9.164;2022-11-15T11:32:23;7.20;;;4.25;;
151;SDS011;68;48.792;9.164;2022-11-15T11:35:02;7.13;;;4.35;;
151;SDS011;68;48.792;9.164;2022-11-15T11:37:37;12.57;;;4.70;;
151;SDS011;68;48.792;9.164;2022-11-15T11:40:14;6.90;;;4.40;;
151;SDS011;68;48.792;9.164;2022-11-15T11:42:52;12.40;;;4.30;;
151;SDS011;68;48.792;9.164;2022-11-15T11:45:34;6.10;;;4.20;;
151;SDS011;68;48.792;9.164;2022-11-15T11:48:18;8.50;;;4.43;;
151;SDS011;68;48.792;9.164;2022-11-15T11:50:52;7.63;;;4.40;;
151;SDS011;68;48.792;9.164;2022-11-15T11:53:24;7.30;;;3.95;;
151;SDS011;68;48.792;9.164;2022-11-15T11:55:56;6.00;;;4.05;;
151;SDS011;68;48.792;9.164;2022-11-15T11:58:30;12.25;;;4.22;;
151;SDS011;68;48.792;9.164;2022-11-15T12:01:02;7.38;;;4.32;;
151;SDS011;68;48.792;9.164;2022-11-15T12:03:39;8.98;;;3.90;;
151;SDS011;68;48.792;9.164;2022-11-15T12:06:27;5.53;;;3.88;;
151;SDS011;68;48.792;9.164;2022-11-15T12:09:00;7.38;;;4.30;;
151;SDS011;68;48.792;9.164;2022-11-15T12:11:34;6.68;;;4.43;;
151;SDS011;68;48.792;9.164;2022-11-15T12:14:05;6.85;;;4.90;;
151;SDS011;68;48.792;9.164;2022-11-15T12:16:42;16.17;;;6.25;;
151;SDS011;68;48.792;9.164;2022-11-15T12:19:10;18.80;;;7.55;;
151;SDS011;68;48.792;9.164;2022-11-15T12:21:39;8.35;;;6.22;;
151;SDS011;68;48.792;9.164;2022-11-15T12:24:13;11.88;;;6.57;;
151;SDS011;68;48.792;9.164;2022-11-15T12:26:46;10.32;;;6.10;;
151;SDS011;68;48.792;9.164;2022-11-15T12:29:19;11.32;;;6.70;;
151;SDS011;68;48.792;9.164;2022-11-15T12:31:50;12.40;;;6.05;;
151;SDS011;68;48.792;9.164;2022-11-15T12:34:36;10.70;;;5.57;;
151;SDS011;68;48.792;9.164;2022-11-15T12:40:24;13.45;;;5.32;;
151;SDS011;68;48.792;9.164;2022-11-15T12:42:59;10.93;;;5.57;;
151;SDS011;68;48.792;9.164;2022-11-15T12:45:29;7.45;;;4.90;;
151;SDS011;68;48.792;9.164;2022-11-15T12:48:21;16.95;;;5.53;;
151;SDS011;68;48.792;9.164;2022-11-15T12:51:15;8.18;;;5.10;;
151;SDS011;68;48.792;9.164;2022-11-15T12:53:42;12.07;;;5.97;;
151;SDS011;68;48.792;9.164;2022-11-15T12:58:53;17.35;;;6.35;;
151;SDS011;68;48.792;9.164;2022-11-15T13:04:25;11.40;;;6.80;;
151;SDS011;68;48.792;9.164;2022-11-15T13:06:55;12.93;;;6.80;;
151;SDS011;68;48.792;9.164;2022-11-15T13:18:25;22.00;;;7.97;;
151;SDS011;68;48.792;9.164;2022-11-15T13:20:58;15.63;;;6.85;;
151;SDS011;68;48.792;9.164;2022-11-15T13:23:26;13.40;;;5.50;;
151;SDS011;68;48.792;9.164;2022-11-15T13:26:06;6.60;;;4.88;;
151;SDS011;68;48.792;9.164;2022-11-15T13:28:38;6.68;;;4.40;;
151;SDS011;68;48.792;9.164;2022-11-15T13:34:02;7.18;;;4.75;;
151;SDS011;68;48.792;9.164;2022-11-15T13:36:40;6.65;;;4.40;;
151;SDS011;68;48.792;9.164;2022-11-15T13:39:14;10.25;;;4.93;;
151;SDS011;68;48.792;9.164;2022-11-15T13:41:52;20.25;;;4.20;;
151;SDS011;68;48.792;9.164;2022-11-15T13:44:20;7.05;;;4.00;;
151;SDS011;68;48.792;9.164;2022-11-15T13:46:47;7.30;;;4.18;;
151;SDS011;68;48.792;9.164;2022-11-15T13:49:14;12.65;;;4.72;;
151;SDS011;68;48.792;9.164;2022-11-15T13:51:42;10.23;;;4.30;;
151;SDS011;68;48.792;9.164;2022-11-15T13:54:16;9.25;;;4.30;;
151;SDS011;68;48.792;9.164;2022-11-15T13:56:47;8.13;;;4.05;;
151;SDS011;68;48.792;9.164;2022-11-15T13:59:22;9.55;;;4.63;;
151;SDS011;68;48.792;9.164;2022-11-15T14:01:51;12.50;;;5.05;;
151;SDS011;68;48.792;9.164;2022-11-15T14:04:19;7.43;;;4.40;;
151;SDS011;68;48.792;9.164;2022-11-15T14:06:49;9.55;;;4.55;;
151;SDS011;68;48.792;9.164;2022-11-15T14:12:29;8.90;;;4.40;;
151;SDS011;68;48.792;9.164;2022-11-15T14:14:58;6.50;;;4.10;;
151;SDS011;68;48.792;9.164;2022-11-15T14:17:36;7.13;;;4.20;;
151;SDS011;68;48.792;9.164;2022-11-15T14:22:58;7.03;;;4.75;;
151;SDS011;68;48.792;9.164;2022-11-15T14:25:28;13.50;;;4.70;;
151;SDS011;68;48.792;9.164;2022-11-15T14:28:12;8.00;;;5.03;;
151;SDS011;68;48.792;9.164;2022-11-15T14:30:56;9.20;;;5.05;;
151;SDS011;68;48.792;9.164;2022-11-15T14:33:25;5.60;;;4.60;;
151;SDS011;68;48.792;9.164;2022-11-15T14:35:55;9.80;;;4.85;;
151;SDS011;68;48.792;9.164;2022-11-15T14:38:23;8.00;;;5.10;;
151;SDS011;68;48.792;9.164;2022-11-15T14:40:51;8.75;;;5.78;;
151;SDS011;68;48.792;9.164;2022-11-15T14:43:18;10.30;;;5.68;;
151;SDS011;68;48.792;9.164;2022-11-15T14:45:45;8.18;;;5.65;;
151;SDS011;68;48.792;9.164;2022-11-15T14:48:12;10.50;;;6.18;;
151;SDS011;68;48.792;9.164;2022-11-15T14:50:39;9.60;;;5.50;;
151;SDS011;68;48.792;9.164;2022-11-15T14:53:06;9.70;;;6.03;;
151;SDS011;68;48.792;9.164;2022-11-15T14:55:33;17.75;;;6.07;;
151;SDS011;68;48.792;9.164;2022-11-15T14:58:02;8.32;;;5.55;;
151;SDS011;68;48.792;9.164;2022-11-15T15:00:32;12.27;;;5.65;;
151;SDS011;68;48.792;9.164;2022-11-15T15:02:58;18.10;;;6.80;;
151;SDS011;68;48.792;9.164;2022-11-15T15:05:27;9.80;;;5.60;;
151;SDS011;68;48.792;9.164;2022-11-15T15:07:57;8.98;;;5.38;;
151;SDS011;68;48.792;9.164;2022-11-15T15:10:24;9.35;;;5.80;;
151;SDS011;68;48.792;9.164;2022-11-15T15:12:53;11.70;;;6.20;;
151;SDS011;68;48.792;9.164;2022-11-15T15:15:22;6.50;;;5.32;;
151;SDS011;68;48.792;9.164;2022-11-15T15:17:51;9.05;;;6.07;;
151;SDS011;68;48.792;9.164;2022-11-15T15:20:18;11.07;;;6.30;;
151;SDS011;68;48.792;9.164;2022-11-15T15:22:44;9.20;;;5.45;;
151;SDS011;68;48.792;9.164;2022-11-15T15:25:18;10.80;;;5.53;;
151;SDS011;68;48.792;9.164;2022-11-15T15:27:47;6.65;;;5.45;;
151;SDS011;68;48.792;9.164;2022-11-15T15:30:14;12.63;;;5.95;;
151;SDS011;68;48.792;9.164;2022-11-15T15:32:42;9.20;;;5.43;;
151;SDS011;68;48.792;9.164;2022-11-15T15:35:11;8.88;;;5.82;;
151;SDS011;68;48.792;9.164;2022-11-15T15:37:38;7.13;;;5.25;;
151;SDS011;68;48.792;9.164;2022-11-15T15:40:08;9.10;;;5.50;;
151;SDS011;68;48.792;9.164;2022-11-15T15:42:39;9.05;;;5.25;;
151;SDS011;68;48.792;9.164;2022-11-15T15:45:06;10.43;;;6.10;;
151;SDS011;68;48.792;9.164;2022-11-15T15:47:34;16.00;;;6.10;;
151;SDS011;68;48.792;9.164;2022-11-15T15:50:03;9.57;;;5.88;;
151;SDS011;68;48.792;9.164;2022-11-15T15:52:30;10.10;;;5.80;;
151;SDS011;68;48.792;9.164;2022-11-15T15:54:57;12.38;;;6.03;;
151;SDS011;68;48.792;9.164;2022-11-15T15:57:24;6.07;;;4.85;;
151;SDS011;68;48.792;9.164;2022-11-15T15:59:51;10.65;;;5.80;;
151;SDS011;68;48.792;9.164;2022-11-15T16:02:17;8.30;;;5.70;;
151;SDS011;68;48.792;9.164;2022-11-15T16:04:44;9.60;;;6.30;;
151;SDS011;68;48.792;9.164;2022-11-15T16:07:15;9.77;;;6.30;;
151;SDS011;68;48.792;9.164;2022-11-15T16:09:48;11.43;;;6.80;;
151;SDS011;68;48.792;9.164;2022-11-15T16:12:28;10.70;;;6.30;;
151;SDS011;68;48.792;9.164;2022-11-15T16:14:55;10.32;;;6.75;;
151;SDS011;68;48.792;9.164;2022-11-15T16:17:23;10.73;;;6.70;;
151;SDS011;68;48.792;9.164;2022-11-15T16:19:52;14.10;;;7.07;;
151;SDS011;68;48.792;9.164;2022-11-15T16:22:20;8.48;;;6.40;;
151;SDS011;68;48.792;9.164;2022-11-15T16:24:47;10.27;;;6.63;;
151;SDS011;68;48.792;9.164;2022-11-15T16:27:14;10.25;;;6.70;;
151;SDS011;68;48.792;9.164;2022-11-15T16:29:42;15.18;;;7.30;;
151;SDS011;68;48.792;9.164;2022-11-15T16:32:09;10.60;;;7.07;;
151;SDS011;68;48.792;9.164;2022-11-15T16:34:36;10.73;;;7.45;;
151;SDS011;68;48.792;9.164;2022-11-15T16:37:03;14.70;;;7.30;;
151;SDS011;68;48.792;9.164;2022-11-15T16:39:32;9.60;;;6.70;;
151;SDS011;68;48.792;9.164;2022-11-15T16:41:59;15.57;;;7.28;;
151;SDS011;68;48.792;9.164;2022-11-15T16:44:27;10.40;;;7.30;;
151;SDS011;68;48.792;9.164;2022-11-15T16:46:54;10.65;;;6.70;;